sensor_id;sensor_type;location;lat;lon;timestamp;P1;durP1;ratioP1;P2;durP2;ratioP2
62102;SDS011;48077;48.104;11.702;2024-03-23T00:55:14;2.67;;;2.17;;
62102;SDS011;48077;48.104;11.702;2024-03-23T00:57:41;4.50;;;2.42;;
62102;SDS011;48077;48.104;11.702;2024-03-23T01:00:07;2.78;;;2.33;;
62102;SDS011;48077;48.104;11.702;2024-03-23T01:07:44;2.53;;;2.33;;
62102;SDS011;48077;48.104;11.702;2024-03-23T01:10:11;3.10;;;2.80;;
62102;SDS011;48077;48.104;11.702;2024-03-23T01:12:36;3.08;;;2.63;;
62102;SDS011;48077;48.104;11.702;2024-03-23T01:15:03;2.78;;;2.30;;
62102;SDS011;48077;48.104;11.702;2024-03-23T01:17:30;3.42;;;3.10;;
62102;SDS011;48077;48.104;11.702;2024-03-23T01:19:57;2.92;;;2.70;;
62102;SDS011;48077;48.104;11.702;2024-03-23T01:22:23;3.45;;;2.58;;
62102;SDS011;48077;48.104;11.702;2024-03-23T01:24:51;2.90;;;2.63;;
62102;SDS011;48077;48.104;11.702;2024-03-23T01:27:16;4.53;;;4.13;;
62102;SDS011;48077;48.104;11.702;2024-03-23T01:29:43;2.80;;;2.55;;
62102;SDS011;48077;48.104;11.702;2024-03-23T01:32:09;4.47;;;2.72;;
62102;SDS011;48077;48.104;11.702;2024-03-23T01:34:36;2.58;;;2.35;;
62102;SDS011;48077;48.104;11.702;2024-03-23T01:37:02;4.00;;;2.40;;
62102;SDS011;48077;48.104;11.702;2024-03-23T01:39:29;4.32;;;2.00;;
62102;SDS011;48077;48.104;11.702;2024-03-23T01:41:57;2.80;;;2.25;;
62102;SDS011;48077;48.104;11.702;2024-03-23T01:44:23;3.42;;;2.45;;
62102;SDS011;48077;48.104;11.702;2024-03-23T01:46:49;2.47;;;2.08;;
62102;SDS011;48077;48.104;11.702;2024-03-23T01:49:16;2.65;;;2.30;;
62102;SDS011;48077;48.104;11.702;2024-03-23T01:51:43;4.78;;;2.70;;
62102;SDS011;48077;48.104;11.702;2024-03-23T01:54:11;5.82;;;2.55;;
62102;SDS011;48077;48.104;11.702;2024-03-23T01:56:37;2.50;;;2.17;;
62102;SDS011;48077;48.104;11.702;2024-03-23T01:59:05;3.83;;;2.75;;
62102;SDS011;48077;48.104;11.702;2024-03-23T02:01:31;2.83;;;2.33;;
62102;SDS011;48077;48.104;11.702;2024-03-23T02:03:58;3.17;;;1.92;;
62102;SDS011;48077;48.104;11.702;2024-03-23T02:06:24;3.88;;;2.20;;
62102;SDS011;48077;48.104;11.702;2024-03-23T02:08:51;3.50;;;2.47;;
62102;SDS011;48077;48.104;11.702;2024-03-23T02:11:18;2.50;;;2.20;;
62102;SDS011;48077;48.104;11.702;2024-03-23T02:13:45;4.40;;;2.08;;
62102;SDS011;48077;48.104;11.702;2024-03-23T02:16:12;3.53;;;3.22;;
62102;SDS011;48077;48.104;11.702;2024-03-23T02:18:39;4.00;;;2.35;;
62102;SDS011;48077;48.104;11.702;2024-03-23T02:21:05;2.95;;;2.20;;
62102;SDS011;48077;48.104;11.702;2024-03-23T02:23:33;2.53;;;2.00;;
62102;SDS011;48077;48.104;11.702;2024-03-23T02:25:59;2.78;;;2.47;;
62102;SDS011;48077;48.104;11.702;2024-03-23T02:28:26;2.92;;;2.63;;
62102;SDS011;48077;48.104;11.702;2024-03-23T02:30:51;4.18;;;2.38;;
62102;SDS011;48077;48.104;11.702;2024-03-23T02:33:18;6.88;;;2.05;;
62102;SDS011;48077;48.104;11.702;2024-03-23T02:35:45;2.60;;;2.38;;
62102;SDS011;48077;48.104;11.702;2024-03-23T02:40:39;2.95;;;2.38;;
62102;SDS011;48077;48.104;11.702;2024-03-23T02:43:06;5.53;;;2.80;;
62102;SDS011;48077;48.104;11.702;2024-03-23T02:45:31;3.78;;;2.47;;
62102;SDS011;48077;48.104;11.702;2024-03-23T02:47:58;2.95;;;1.95;;
62102;SDS011;48077;48.104;11.702;2024-03-23T02:50:24;2.92;;;2.13;;
62102;SDS011;48077;48.104;11.702;2024-03-23T02:52:51;2.88;;;2.00;;
62102;SDS011;48077;48.104;11.702;2024-03-23T02:55:16;2.63;;;2.40;;
62102;SDS011;48077;48.104;11.702;2024-03-23T02:57:45;3.60;;;2.72;;
62102;SDS011;48077;48.104;11.702;2024-03-23T03:00:12;3.10;;;2.30;;
62102;SDS011;48077;48.104;11.702;2024-03-23T03:02:39;7.28;;;2.25;;
62102;SDS011;48077;48.104;11.702;2024-03-23T03:05:05;2.53;;;2.33;;
62102;SDS011;48077;48.104;11.702;2024-03-23T03:07:34;2.92;;;2.10;;
62102;SDS011;48077;48.104;11.702;2024-03-23T03:09:59;2.50;;;2.10;;
62102;SDS011;48077;48.104;11.702;2024-03-23T03:12:26;3.33;;;2.30;;
62102;SDS011;48077;48.104;11.702;2024-03-23T03:14:54;2.85;;;2.60;;
62102;SDS011;48077;48.104;11.702;2024-03-23T03:17:20;3.25;;;2.97;;
62102;SDS011;48077;48.104;11.702;2024-03-23T03:19:46;3.22;;;2.92;;
62102;SDS011;48077;48.104;11.702;2024-03-23T03:22:13;4.18;;;2.25;;
62102;SDS011;48077;48.104;11.702;2024-03-23T03:24:39;2.95;;;2.70;;
62102;SDS011;48077;48.104;11.702;2024-03-23T03:27:06;2.55;;;2.17;;
62102;SDS011;48077;48.104;11.702;2024-03-23T03:29:32;3.25;;;1.98;;
62102;SDS011;48077;48.104;11.702;2024-03-23T03:32:03;2.97;;;2.10;;
62102;SDS011;48077;48.104;11.702;2024-03-23T03:34:29;2.35;;;2.10;;
62102;SDS011;48077;48.104;11.702;2024-03-23T03:36:56;3.60;;;2.85;;
62102;SDS011;48077;48.104;11.702;2024-03-23T03:39:22;2.67;;;2.13;;
62102;SDS011;48077;48.104;11.702;2024-03-23T03:41:49;2.85;;;2.40;;
62102;SDS011;48077;48.104;11.702;2024-03-23T03:44:15;4.28;;;2.08;;
62102;SDS011;48077;48.104;11.702;2024-03-23T03:46:42;3.30;;;2.72;;
62102;SDS011;48077;48.104;11.702;2024-03-23T03:49:09;2.67;;;2.25;;
62102;SDS011;48077;48.104;11.702;2024-03-23T03:51:36;2.45;;;2.25;;
62102;SDS011;48077;48.104;11.702;2024-03-23T03:54:02;2.92;;;2.40;;
62102;SDS011;48077;48.104;11.702;2024-03-23T03:56:29;2.78;;;2.15;;
62102;SDS011;48077;48.104;11.702;2024-03-23T03:58:55;2.85;;;1.88;;
62102;SDS011;48077;48.104;11.702;2024-03-23T04:01:22;2.03;;;1.85;;
62102;SDS011;48077;48.104;11.702;2024-03-23T04:03:47;2.58;;;2.38;;
62102;SDS011;48077;48.104;11.702;2024-03-23T04:06:19;2.78;;;2.58;;
62102;SDS011;48077;48.104;11.702;2024-03-23T04:08:45;2.60;;;1.92;;
62102;SDS011;48077;48.104;11.702;2024-03-23T04:11:12;2.35;;;2.15;;
62102;SDS011;48077;48.104;11.702;2024-03-23T04:13:38;2.38;;;1.70;;
62102;SDS011;48077;48.104;11.702;2024-03-23T04:16:06;2.70;;;2.50;;
62102;SDS011;48077;48.104;11.702;2024-03-23T04:18:32;4.15;;;1.98;;
62102;SDS011;48077;48.104;11.702;2024-03-23T04:20:59;3.28;;;2.10;;
62102;SDS011;48077;48.104;11.702;2024-03-23T04:23:26;2.65;;;2.13;;
62102;SDS011;48077;48.104;11.702;2024-03-23T04:25:53;3.53;;;2.00;;
62102;SDS011;48077;48.104;11.702;2024-03-23T04:28:19;2.60;;;2.40;;
62102;SDS011;48077;48.104;11.702;2024-03-23T04:30:46;2.58;;;2.25;;
62102;SDS011;48077;48.104;11.702;2024-03-23T04:33:12;2.63;;;2.13;;
62102;SDS011;48077;48.104;11.702;2024-03-23T04:35:39;6.32;;;4.00;;
62102;SDS011;48077;48.104;11.702;2024-03-23T04:38:04;3.45;;;3.05;;
62102;SDS011;48077;48.104;11.702;2024-03-23T04:40:33;3.42;;;2.72;;
62102;SDS011;48077;48.104;11.702;2024-03-23T04:42:59;3.03;;;2.20;;
62102;SDS011;48077;48.104;11.702;2024-03-23T04:45:26;2.70;;;2.30;;
62102;SDS011;48077;48.104;11.702;2024-03-23T04:47:53;2.90;;;2.13;;
62102;SDS011;48077;48.104;11.702;2024-03-23T04:50:20;3.08;;;2.78;;
62102;SDS011;48077;48.104;11.702;2024-03-23T04:52:47;4.70;;;2.08;;
62102;SDS011;48077;48.104;11.702;2024-03-23T04:55:12;2.83;;;2.03;;
62102;SDS011;48077;48.104;11.702;2024-03-23T04:57:41;2.08;;;1.85;;
62102;SDS011;48077;48.104;11.702;2024-03-23T05:00:07;2.08;;;1.77;;
62102;SDS011;48077;48.104;11.702;2024-03-23T05:02:42;2.60;;;2.08;;
62102;SDS011;48077;48.104;11.702;2024-03-23T05:05:09;2.70;;;2.20;;
62102;SDS011;48077;48.104;11.702;2024-03-23T05:07:36;2.50;;;2.30;;
62102;SDS011;48077;48.104;11.702;2024-03-23T05:10:03;3.85;;;2.50;;
62102;SDS011;48077;48.104;11.702;2024-03-23T05:12:30;2.15;;;1.95;;
62102;SDS011;48077;48.104;11.702;2024-03-23T05:14:58;2.42;;;2.22;;
62102;SDS011;48077;48.104;11.702;2024-03-23T05:17:24;3.58;;;1.98;;
62102;SDS011;48077;48.104;11.702;2024-03-23T05:19:50;2.63;;;2.42;;
62102;SDS011;48077;48.104;11.702;2024-03-23T05:22:17;1.55;;;1.45;;
62102;SDS011;48077;48.104;11.702;2024-03-23T05:24:44;2.80;;;2.60;;
62102;SDS011;48077;48.104;11.702;2024-03-23T05:27:11;1.70;;;1.55;;
62102;SDS011;48077;48.104;11.702;2024-03-23T05:29:37;2.08;;;1.98;;
62102;SDS011;48077;48.104;11.702;2024-03-23T05:32:06;2.30;;;1.65;;
62102;SDS011;48077;48.104;11.702;2024-03-23T05:34:32;2.80;;;1.77;;
62102;SDS011;48077;48.104;11.702;2024-03-23T05:36:59;7.18;;;3.60;;
62102;SDS011;48077;48.104;11.702;2024-03-23T05:39:25;2.38;;;1.73;;
62102;SDS011;48077;48.104;11.702;2024-03-23T05:41:51;4.10;;;3.80;;
62102;SDS011;48077;48.104;11.702;2024-03-23T05:44:17;3.72;;;2.53;;
62102;SDS011;48077;48.104;11.702;2024-03-23T05:46:45;2.92;;;2.28;;
62102;SDS011;48077;48.104;11.702;2024-03-23T05:49:15;2.67;;;2.05;;
62102;SDS011;48077;48.104;11.702;2024-03-23T05:51:43;3.70;;;2.28;;
62102;SDS011;48077;48.104;11.702;2024-03-23T05:54:09;4.55;;;1.98;;
62102;SDS011;48077;48.104;11.702;2024-03-23T05:56:35;2.92;;;2.00;;
62102;SDS011;48077;48.104;11.702;2024-03-23T05:59:01;2.55;;;2.03;;
62102;SDS011;48077;48.104;11.702;2024-03-23T06:01:29;4.13;;;2.47;;
62102;SDS011;48077;48.104;11.702;2024-03-23T06:03:58;3.60;;;1.60;;
62102;SDS011;48077;48.104;11.702;2024-03-23T06:06:27;3.92;;;3.20;;
62102;SDS011;48077;48.104;11.702;2024-03-23T06:08:55;1.90;;;1.65;;
62102;SDS011;48077;48.104;11.702;2024-03-23T06:11:22;1.85;;;1.75;;
62102;SDS011;48077;48.104;11.702;2024-03-23T06:13:48;1.90;;;1.73;;
62102;SDS011;48077;48.104;11.702;2024-03-23T06:16:15;2.13;;;1.67;;
62102;SDS011;48077;48.104;11.702;2024-03-23T06:18:41;2.50;;;1.90;;
62102;SDS011;48077;48.104;11.702;2024-03-23T06:21:12;1.60;;;1.50;;
62102;SDS011;48077;48.104;11.702;2024-03-23T06:23:40;2.35;;;1.73;;
62102;SDS011;48077;48.104;11.702;2024-03-23T06:26:07;3.85;;;1.63;;
62102;SDS011;48077;48.104;11.702;2024-03-23T06:28:33;2.85;;;1.88;;
62102;SDS011;48077;48.104;11.702;2024-03-23T06:31:01;4.43;;;1.92;;
62102;SDS011;48077;48.104;11.702;2024-03-23T06:33:27;2.25;;;1.92;;
62102;SDS011;48077;48.104;11.702;2024-03-23T06:35:54;2.78;;;1.23;;
62102;SDS011;48077;48.104;11.702;2024-03-23T06:38:20;1.95;;;1.85;;
62102;SDS011;48077;48.104;11.702;2024-03-23T06:40:48;4.72;;;1.50;;
62102;SDS011;48077;48.104;11.702;2024-03-23T06:43:16;2.03;;;1.80;;
62102;SDS011;48077;48.104;11.702;2024-03-23T06:45:42;2.42;;;1.20;;
62102;SDS011;48077;48.104;11.702;2024-03-23T06:48:08;3.70;;;2.90;;
62102;SDS011;48077;48.104;11.702;2024-03-23T06:50:35;1.58;;;1.42;;
62102;SDS011;48077;48.104;11.702;2024-03-23T06:53:01;2.65;;;1.45;;
62102;SDS011;48077;48.104;11.702;2024-03-23T06:55:30;2.58;;;2.38;;
62102;SDS011;48077;48.104;11.702;2024-03-23T06:57:57;2.13;;;1.63;;
62102;SDS011;48077;48.104;11.702;2024-03-23T07:00:24;2.22;;;1.48;;
62102;SDS011;48077;48.104;11.702;2024-03-23T07:02:50;2.30;;;2.10;;
62102;SDS011;48077;48.104;11.702;2024-03-23T07:07:43;1.73;;;1.63;;
62102;SDS011;48077;48.104;11.702;2024-03-23T07:10:10;1.73;;;1.50;;
62102;SDS011;48077;48.104;11.702;2024-03-23T07:12:36;2.03;;;1.23;;
62102;SDS011;48077;48.104;11.702;2024-03-23T07:15:04;1.70;;;1.58;;
62102;SDS011;48077;48.104;11.702;2024-03-23T07:17:31;1.90;;;1.65;;
62102;SDS011;48077;48.104;11.702;2024-03-23T07:19:58;2.95;;;1.08;;
62102;SDS011;48077;48.104;11.702;2024-03-23T07:22:25;2.25;;;1.77;;
62102;SDS011;48077;48.104;11.702;2024-03-23T07:24:52;4.20;;;1.45;;
62102;SDS011;48077;48.104;11.702;2024-03-23T07:27:18;1.38;;;1.27;;
62102;SDS011;48077;48.104;11.702;2024-03-23T07:29:45;1.75;;;1.42;;
62102;SDS011;48077;48.104;11.702;2024-03-23T07:32:12;1.80;;;1.70;;
62102;SDS011;48077;48.104;11.702;2024-03-23T07:34:39;1.70;;;0.98;;
62102;SDS011;48077;48.104;11.702;2024-03-23T07:37:04;1.85;;;1.33;;
62102;SDS011;48077;48.104;11.702;2024-03-23T07:39:31;1.88;;;1.40;;
62102;SDS011;48077;48.104;11.702;2024-03-23T07:41:59;1.17;;;1.00;;
62102;SDS011;48077;48.104;11.702;2024-03-23T07:44:26;1.38;;;1.27;;
62102;SDS011;48077;48.104;11.702;2024-03-23T07:46:51;1.33;;;1.10;;
62102;SDS011;48077;48.104;11.702;2024-03-23T07:49:20;2.17;;;1.45;;
62102;SDS011;48077;48.104;11.702;2024-03-23T07:51:45;1.48;;;1.15;;
62102;SDS011;48077;48.104;11.702;2024-03-23T07:54:12;7.95;;;1.48;;
62102;SDS011;48077;48.104;11.702;2024-03-23T07:56:38;1.40;;;1.30;;
62102;SDS011;48077;48.104;11.702;2024-03-23T07:59:05;2.42;;;1.60;;
62102;SDS011;48077;48.104;11.702;2024-03-23T08:01:31;5.28;;;1.40;;
62102;SDS011;48077;48.104;11.702;2024-03-23T08:03:57;3.00;;;1.27;;
62102;SDS011;48077;48.104;11.702;2024-03-23T08:06:25;3.60;;;1.50;;
62102;SDS011;48077;48.104;11.702;2024-03-23T08:08:52;1.80;;;1.52;;
62102;SDS011;48077;48.104;11.702;2024-03-23T08:11:25;1.73;;;1.63;;
62102;SDS011;48077;48.104;11.702;2024-03-23T08:13:52;2.10;;;1.67;;
62102;SDS011;48077;48.104;11.702;2024-03-23T08:16:17;1.60;;;1.50;;
62102;SDS011;48077;48.104;11.702;2024-03-23T08:18:44;1.45;;;1.35;;
62102;SDS011;48077;48.104;11.702;2024-03-23T08:21:10;1.40;;;1.30;;
62102;SDS011;48077;48.104;11.702;2024-03-23T08:23:38;1.80;;;1.48;;
62102;SDS011;48077;48.104;11.702;2024-03-23T08:28:32;4.72;;;1.95;;
62102;SDS011;48077;48.104;11.702;2024-03-23T08:31:00;3.35;;;2.53;;
62102;SDS011;48077;48.104;11.702;2024-03-23T08:33:28;5.10;;;2.20;;
62102;SDS011;48077;48.104;11.702;2024-03-23T08:35:55;2.95;;;1.75;;
62102;SDS011;48077;48.104;11.702;2024-03-23T08:38:23;4.60;;;2.17;;
62102;SDS011;48077;48.104;11.702;2024-03-23T08:40:57;4.00;;;2.25;;
62102;SDS011;48077;48.104;11.702;2024-03-23T08:43:24;1.98;;;1.55;;
62102;SDS011;48077;48.104;11.702;2024-03-23T08:45:50;2.28;;;2.08;;
62102;SDS011;48077;48.104;11.702;2024-03-23T08:48:17;4.55;;;2.05;;
62102;SDS011;48077;48.104;11.702;2024-03-23T08:50:45;2.92;;;2.45;;
62102;SDS011;48077;48.104;11.702;2024-03-23T08:53:12;2.17;;;1.98;;
62102;SDS011;48077;48.104;11.702;2024-03-23T08:55:38;3.97;;;2.47;;
62102;SDS011;48077;48.104;11.702;2024-03-23T08:58:06;2.83;;;2.13;;
62102;SDS011;48077;48.104;11.702;2024-03-23T09:00:34;4.80;;;2.95;;
62102;SDS011;48077;48.104;11.702;2024-03-23T09:03:01;3.13;;;2.78;;
62102;SDS011;48077;48.104;11.702;2024-03-23T09:05:27;2.50;;;2.30;;
62102;SDS011;48077;48.104;11.702;2024-03-23T09:08:00;3.20;;;2.78;;
62102;SDS011;48077;48.104;11.702;2024-03-23T09:10:26;3.95;;;2.33;;
62102;SDS011;48077;48.104;11.702;2024-03-23T09:12:54;2.95;;;2.35;;
62102;SDS011;48077;48.104;11.702;2024-03-23T09:15:21;3.97;;;2.90;;
62102;SDS011;48077;48.104;11.702;2024-03-23T09:17:48;3.33;;;2.45;;
62102;SDS011;48077;48.104;11.702;2024-03-23T09:20:14;5.35;;;2.63;;
62102;SDS011;48077;48.104;11.702;2024-03-23T09:22:40;5.65;;;2.63;;
62102;SDS011;48077;48.104;11.702;2024-03-23T09:25:07;3.28;;;2.65;;
62102;SDS011;48077;48.104;11.702;2024-03-23T09:27:34;4.97;;;2.75;;
62102;SDS011;48077;48.104;11.702;2024-03-23T09:30:00;3.20;;;2.47;;
62102;SDS011;48077;48.104;11.702;2024-03-23T09:32:28;4.20;;;3.30;;
62102;SDS011;48077;48.104;11.702;2024-03-23T09:34:54;5.47;;;3.33;;
62102;SDS011;48077;48.104;11.702;2024-03-23T09:37:20;4.53;;;2.97;;
62102;SDS011;48077;48.104;11.702;2024-03-23T09:39:46;4.57;;;2.80;;
62102;SDS011;48077;48.104;11.702;2024-03-23T09:42:13;3.15;;;2.60;;
62102;SDS011;48077;48.104;11.702;2024-03-23T09:44:40;3.72;;;3.13;;
62102;SDS011;48077;48.104;11.702;2024-03-23T09:47:06;3.50;;;2.22;;
62102;SDS011;48077;48.104;11.702;2024-03-23T09:49:35;4.07;;;2.70;;
62102;SDS011;48077;48.104;11.702;2024-03-23T09:52:02;2.72;;;2.53;;
62102;SDS011;48077;48.104;11.702;2024-03-23T09:54:28;1.85;;;1.52;;
62102;SDS011;48077;48.104;11.702;2024-03-23T09:56:55;2.13;;;1.92;;
62102;SDS011;48077;48.104;11.702;2024-03-23T09:59:21;2.95;;;1.60;;
62102;SDS011;48077;48.104;11.702;2024-03-23T10:01:48;1.67;;;1.58;;
62102;SDS011;48077;48.104;11.702;2024-03-23T10:07:10;1.52;;;1.42;;
62102;SDS011;48077;48.104;11.702;2024-03-23T10:09:36;2.47;;;1.67;;
62102;SDS011;48077;48.104;11.702;2024-03-23T10:12:07;1.92;;;1.65;;
62102;SDS011;48077;48.104;11.702;2024-03-23T10:14:34;1.17;;;1.08;;
62102;SDS011;48077;48.104;11.702;2024-03-23T10:17:12;2.20;;;2.10;;
62102;SDS011;48077;48.104;11.702;2024-03-23T10:19:41;1.33;;;1.23;;
62102;SDS011;48077;48.104;11.702;2024-03-23T10:22:09;6.63;;;4.95;;
62102;SDS011;48077;48.104;11.702;2024-03-23T10:24:35;3.28;;;2.97;;
62102;SDS011;48077;48.104;11.702;2024-03-23T10:27:02;2.00;;;1.80;;
62102;SDS011;48077;48.104;11.702;2024-03-23T10:29:28;2.45;;;1.92;;
62102;SDS011;48077;48.104;11.702;2024-03-23T10:31:59;2.67;;;2.47;;
62102;SDS011;48077;48.104;11.702;2024-03-23T10:34:33;2.13;;;1.98;;
62102;SDS011;48077;48.104;11.702;2024-03-23T10:37:01;2.28;;;1.95;;
62102;SDS011;48077;48.104;11.702;2024-03-23T10:39:29;3.08;;;1.88;;
62102;SDS011;48077;48.104;11.702;2024-03-23T10:42:01;1.42;;;1.33;;
62102;SDS011;48077;48.104;11.702;2024-03-23T10:44:29;2.13;;;2.03;;
62102;SDS011;48077;48.104;11.702;2024-03-23T10:46:57;2.10;;;1.95;;
62102;SDS011;48077;48.104;11.702;2024-03-23T10:49:28;2.38;;;1.33;;
62102;SDS011;48077;48.104;11.702;2024-03-23T10:51:59;2.42;;;1.67;;
62102;SDS011;48077;48.104;11.702;2024-03-23T10:54:27;1.92;;;1.77;;
62102;SDS011;48077;48.104;11.702;2024-03-23T10:56:57;3.08;;;1.95;;
62102;SDS011;48077;48.104;11.702;2024-03-23T10:59:29;1.08;;;1.05;;
62102;SDS011;48077;48.104;11.702;2024-03-23T11:01:56;3.33;;;1.25;;
62102;SDS011;48077;48.104;11.702;2024-03-23T11:04:29;1.75;;;1.65;;
62102;SDS011;48077;48.104;11.702;2024-03-23T11:06:57;1.05;;;1.05;;
62102;SDS011;48077;48.104;11.702;2024-03-23T11:09:40;1.48;;;1.38;;
62102;SDS011;48077;48.104;11.702;2024-03-23T11:12:26;1.58;;;1.58;;
62102;SDS011;48077;48.104;11.702;2024-03-23T11:14:53;1.17;;;1.08;;
62102;SDS011;48077;48.104;11.702;2024-03-23T11:17:21;2.03;;;1.13;;
62102;SDS011;48077;48.104;11.702;2024-03-23T11:19:54;2.78;;;2.67;;
62102;SDS011;48077;48.104;11.702;2024-03-23T11:22:41;2.00;;;1.48;;
62102;SDS011;48077;48.104;11.702;2024-03-23T11:25:16;4.28;;;1.17;;
62102;SDS011;48077;48.104;11.702;2024-03-23T11:27:45;2.35;;;1.17;;
62102;SDS011;48077;48.104;11.702;2024-03-23T11:30:12;2.58;;;1.30;;
62102;SDS011;48077;48.104;11.702;2024-03-23T11:32:40;1.92;;;0.98;;
62102;SDS011;48077;48.104;11.702;2024-03-23T11:35:07;1.52;;;1.40;;
62102;SDS011;48077;48.104;11.702;2024-03-23T11:37:35;1.30;;;0.95;;
62102;SDS011;48077;48.104;11.702;2024-03-23T11:40:18;2.05;;;1.65;;
62102;SDS011;48077;48.104;11.702;2024-03-23T11:42:46;1.58;;;1.48;;
62102;SDS011;48077;48.104;11.702;2024-03-23T11:45:12;2.03;;;1.92;;
62102;SDS011;48077;48.104;11.702;2024-03-23T11:47:41;2.35;;;1.25;;
62102;SDS011;48077;48.104;11.702;2024-03-23T11:50:07;1.27;;;1.08;;
62102;SDS011;48077;48.104;11.702;2024-03-23T11:52:35;1.35;;;1.25;;
62102;SDS011;48077;48.104;11.702;2024-03-23T11:55:04;2.63;;;1.55;;
62102;SDS011;48077;48.104;11.702;2024-03-23T11:57:34;1.40;;;1.30;;
62102;SDS011;48077;48.104;11.702;2024-03-23T12:00:00;1.63;;;1.50;;
62102;SDS011;48077;48.104;11.702;2024-03-23T12:02:27;3.53;;;1.27;;
62102;SDS011;48077;48.104;11.702;2024-03-23T12:04:53;3.05;;;1.42;;
62102;SDS011;48077;48.104;11.702;2024-03-23T12:07:20;2.50;;;2.08;;
62102;SDS011;48077;48.104;11.702;2024-03-23T12:09:47;5.00;;;2.10;;
62102;SDS011;48077;48.104;11.702;2024-03-23T12:12:29;3.35;;;2.20;;
62102;SDS011;48077;48.104;11.702;2024-03-23T12:15:02;1.65;;;1.55;;
62102;SDS011;48077;48.104;11.702;2024-03-23T12:17:31;2.80;;;1.17;;
62102;SDS011;48077;48.104;11.702;2024-03-23T12:19:57;2.20;;;1.33;;
62102;SDS011;48077;48.104;11.702;2024-03-23T12:22:24;1.67;;;1.58;;
62102;SDS011;48077;48.104;11.702;2024-03-23T12:24:50;2.63;;;1.52;;
62102;SDS011;48077;48.104;11.702;2024-03-23T12:27:17;3.90;;;2.38;;
62102;SDS011;48077;48.104;11.702;2024-03-23T12:29:43;2.00;;;1.38;;
62102;SDS011;48077;48.104;11.702;2024-03-23T12:32:12;1.63;;;1.38;;
62102;SDS011;48077;48.104;11.702;2024-03-23T12:34:39;3.08;;;2.78;;
62102;SDS011;48077;48.104;11.702;2024-03-23T12:37:06;2.25;;;1.80;;
62102;SDS011;48077;48.104;11.702;2024-03-23T12:39:32;3.35;;;2.40;;
62102;SDS011;48077;48.104;11.702;2024-03-23T12:42:00;6.15;;;2.20;;
62102;SDS011;48077;48.104;11.702;2024-03-23T12:44:26;3.28;;;2.05;;
62102;SDS011;48077;48.104;11.702;2024-03-23T12:46:53;2.85;;;2.08;;
62102;SDS011;48077;48.104;11.702;2024-03-23T12:49:20;4.35;;;2.47;;
62102;SDS011;48077;48.104;11.702;2024-03-23T12:51:48;2.97;;;2.42;;
62102;SDS011;48077;48.104;11.702;2024-03-23T12:54:19;4.45;;;2.95;;
62102;SDS011;48077;48.104;11.702;2024-03-23T12:56:46;3.53;;;2.28;;
62102;SDS011;48077;48.104;11.702;2024-03-23T12:59:12;3.88;;;2.38;;
62102;SDS011;48077;48.104;11.702;2024-03-23T13:01:39;3.65;;;2.58;;
62102;SDS011;48077;48.104;11.702;2024-03-23T13:04:05;5.10;;;1.67;;
62102;SDS011;48077;48.104;11.702;2024-03-23T13:06:33;3.85;;;2.30;;
62102;SDS011;48077;48.104;11.702;2024-03-23T13:09:00;3.20;;;1.95;;
62102;SDS011;48077;48.104;11.702;2024-03-23T13:11:27;3.33;;;1.95;;
62102;SDS011;48077;48.104;11.702;2024-03-23T13:13:52;2.63;;;2.40;;
62102;SDS011;48077;48.104;11.702;2024-03-23T13:16:19;4.85;;;2.33;;
62102;SDS011;48077;48.104;11.702;2024-03-23T13:18:45;4.30;;;1.88;;
62102;SDS011;48077;48.104;11.702;2024-03-23T13:21:12;4.50;;;2.60;;
62102;SDS011;48077;48.104;11.702;2024-03-23T13:23:39;4.80;;;2.03;;
62102;SDS011;48077;48.104;11.702;2024-03-23T13:26:07;4.10;;;1.88;;
62102;SDS011;48077;48.104;11.702;2024-03-23T13:28:33;4.82;;;2.47;;
62102;SDS011;48077;48.104;11.702;2024-03-23T13:31:01;3.17;;;1.95;;
62102;SDS011;48077;48.104;11.702;2024-03-23T13:33:29;4.63;;;3.00;;
62102;SDS011;48077;48.104;11.702;2024-03-23T13:35:57;6.55;;;2.47;;
62102;SDS011;48077;48.104;11.702;2024-03-23T13:38:23;4.82;;;2.53;;
62102;SDS011;48077;48.104;11.702;2024-03-23T13:40:52;3.83;;;2.17;;
62102;SDS011;48077;48.104;11.702;2024-03-23T13:43:19;2.35;;;1.95;;
62102;SDS011;48077;48.104;11.702;2024-03-23T13:45:46;8.20;;;3.85;;
62102;SDS011;48077;48.104;11.702;2024-03-23T13:48:12;3.65;;;2.67;;
62102;SDS011;48077;48.104;11.702;2024-03-23T13:50:39;3.67;;;2.03;;
62102;SDS011;48077;48.104;11.702;2024-03-23T13:53:05;4.50;;;2.40;;
62102;SDS011;48077;48.104;11.702;2024-03-23T13:55:33;5.68;;;2.42;;
62102;SDS011;48077;48.104;11.702;2024-03-23T13:58:00;8.32;;;2.67;;
62102;SDS011;48077;48.104;11.702;2024-03-23T14:00:27;4.88;;;2.95;;
62102;SDS011;48077;48.104;11.702;2024-03-23T14:02:53;5.63;;;3.78;;
62102;SDS011;48077;48.104;11.702;2024-03-23T14:05:19;3.50;;;2.53;;
62102;SDS011;48077;48.104;11.702;2024-03-23T14:07:45;6.68;;;3.15;;
62102;SDS011;48077;48.104;11.702;2024-03-23T14:10:12;5.00;;;2.65;;
62102;SDS011;48077;48.104;11.702;2024-03-23T14:12:38;4.50;;;2.00;;
62102;SDS011;48077;48.104;11.702;2024-03-23T14:15:08;3.17;;;2.80;;
62102;SDS011;48077;48.104;11.702;2024-03-23T14:20:01;5.68;;;2.30;;
62102;SDS011;48077;48.104;11.702;2024-03-23T14:22:29;5.70;;;3.17;;
62102;SDS011;48077;48.104;11.702;2024-03-23T14:24:56;7.78;;;3.45;;
62102;SDS011;48077;48.104;11.702;2024-03-23T14:27:22;10.13;;;6.15;;
62102;SDS011;48077;48.104;11.702;2024-03-23T14:29:48;12.00;;;8.50;;
62102;SDS011;48077;48.104;11.702;2024-03-23T14:32:16;6.80;;;3.78;;
62102;SDS011;48077;48.104;11.702;2024-03-23T14:34:42;17.00;;;11.07;;
62102;SDS011;48077;48.104;11.702;2024-03-23T14:37:08;9.07;;;6.07;;
62102;SDS011;48077;48.104;11.702;2024-03-23T14:39:35;8.57;;;5.45;;
62102;SDS011;48077;48.104;11.702;2024-03-23T14:42:01;22.00;;;14.00;;
62102;SDS011;48077;48.104;11.702;2024-03-23T14:44:28;17.92;;;10.00;;
62102;SDS011;48077;48.104;11.702;2024-03-23T14:46:53;14.15;;;8.02;;
62102;SDS011;48077;48.104;11.702;2024-03-23T14:49:22;16.45;;;8.70;;
62102;SDS011;48077;48.104;11.702;2024-03-23T14:51:49;12.50;;;5.80;;
62102;SDS011;48077;48.104;11.702;2024-03-23T14:54:16;21.40;;;7.18;;
62102;SDS011;48077;48.104;11.702;2024-03-23T14:56:42;7.75;;;4.47;;
62102;SDS011;48077;48.104;11.702;2024-03-23T14:59:09;11.18;;;4.90;;
62102;SDS011;48077;48.104;11.702;2024-03-23T15:01:35;8.40;;;4.63;;
62102;SDS011;48077;48.104;11.702;2024-03-23T15:04:01;24.25;;;14.18;;
62102;SDS011;48077;48.104;11.702;2024-03-23T15:08:56;6.57;;;3.47;;
62102;SDS011;48077;48.104;11.702;2024-03-23T15:11:23;5.53;;;2.63;;
62102;SDS011;48077;48.104;11.702;2024-03-23T15:13:49;8.13;;;2.97;;
62102;SDS011;48077;48.104;11.702;2024-03-23T15:16:16;5.50;;;2.58;;
62102;SDS011;48077;48.104;11.702;2024-03-23T15:18:43;4.38;;;2.97;;
62102;SDS011;48077;48.104;11.702;2024-03-23T15:21:09;3.53;;;2.08;;
62102;SDS011;48077;48.104;11.702;2024-03-23T15:23:37;11.57;;;5.85;;
62102;SDS011;48077;48.104;11.702;2024-03-23T15:26:04;2.70;;;2.35;;
62102;SDS011;48077;48.104;11.702;2024-03-23T15:28:32;10.88;;;6.95;;
62102;SDS011;48077;48.104;11.702;2024-03-23T15:31:05;17.25;;;6.72;;
62102;SDS011;48077;48.104;11.702;2024-03-23T15:33:32;6.93;;;3.17;;
62102;SDS011;48077;48.104;11.702;2024-03-23T15:35:59;5.05;;;2.97;;
62102;SDS011;48077;48.104;11.702;2024-03-23T15:38:25;9.38;;;4.28;;
62102;SDS011;48077;48.104;11.702;2024-03-23T15:40:53;22.77;;;11.38;;
62102;SDS011;48077;48.104;11.702;2024-03-23T15:43:18;21.80;;;11.75;;
62102;SDS011;48077;48.104;11.702;2024-03-23T15:45:53;3.10;;;2.53;;
62102;SDS011;48077;48.104;11.702;2024-03-23T15:48:19;11.80;;;6.43;;